DIAP/ABJ METAR and TAF weather

Enter ICAO airport designator
Station Type Date Time Source
DIAP METAR 2019/08/19 22:00 UTC NOAA

DIAP 192200Z 23009KT 9999 FEW012 24/23 Q1014 NOSIG


Station Type Date Time Source
DIAP Decoded METAR 2019/08/19 22:00 UTC NOAA

Abidjan, Cote d'Ivoire (DIAP) 05-15N 003-56W 8M
Aug 19, 2019 - 06:00 PM EDT / 2019.08.19 2200 UTC
Wind: from the SW (230 degrees) at 10 MPH (9 KT):0
Visibility: greater than 7 mile(s):0
Sky conditions: mostly clear
Temperature: 75 F (24 C)
Dew Point: 73 F (23 C)
Relative Humidity: 94%
Pressure (altimeter): 29.94 in. Hg (1014 hPa)
ob: DIAP 192200Z 23009KT 9999 FEW012 24/23 Q1014 NOSIG
cycle: 22

Station Type Date Time Source
DIAP TAF 2019/08/19 18:57 UTC NOAA

TAF TAF DIAP 191730Z 1918/2024 23012KT 8000 SCT013 BKN040
TEMPO 1920/1923 4000 DZ BKN011 BKN030
BECMG 1923/1924 VRB03KT
TEMPO 2003/2007 3500 BR FEW006 BKN010 BKN030
TEMPO 2008/2011 BKN011 BKN040
BECMG 2011/2012 23010KT

Example: see airport list